Time;durP1;ratioP1;P1;durP2;ratioP2;P2;SDS_P1;SDS_P2;PMS_P1;PMS_P2;Temp;Humidity;BMP_temperature;BMP_pressure;BME280_temperature;BME280_humidity;BME280_pressure;Samples;Min_cycle;Max_cycle;Signal;HPM_P1;HPM_P2
2021/12/16 00:07:05;;;;;;;72.40;28.17;;;;;;;-0.59;100.00;98449.50;5071502;28;20033;-66
2021/12/16 00:09:45;;;;;;;70.30;24.27;;;;;;;-0.64;100.00;98446.13;5071287;28;20443;-67
2021/12/16 00:31:56;;;;;;;61.33;20.63;;;;;;;-0.64;100.00;98468.56;5070518;28;20036;-65
2021/12/16 00:34:28;;;;;;;64.67;23.37;;;;;;;-0.65;100.00;98469.44;5069238;28;20032;-64
2021/12/16 00:36:56;;;;;;;63.67;23.07;;;;;;;-0.63;100.00;98462.53;5071069;28;20056;-65
2021/12/16 00:39:27;;;;;;;58.90;20.73;;;;;;;-0.64;100.00;98466.00;5071686;28;20052;-65
2021/12/16 00:42:02;;;;;;;49.90;20.17;;;;;;;-0.61;100.00;98465.91;5072368;28;20051;-66
2021/12/16 00:47:27;;;;;;;55.23;21.03;;;;;;;-0.59;100.00;98462.44;5069398;28;20098;-66
2021/12/16 00:50:04;;;;;;;59.53;20.57;;;;;;;-0.59;100.00;98464.19;5071463;28;20041;-65
2021/12/16 00:55:29;;;;;;;51.33;17.93;;;;;;;-0.60;100.00;98473.66;5071621;28;20036;-65
2021/12/16 00:57:58;;;;;;;50.63;21.50;;;;;;;-0.52;100.00;98464.03;5069557;28;20048;-66
2021/12/16 01:00:28;;;;;;;50.73;23.00;;;;;;;-0.49;100.00;98460.59;5071196;28;20052;-65
2021/12/16 01:03:07;;;;;;;51.73;18.90;;;;;;;-0.45;100.00;98457.91;5071402;28;20055;-66
2021/12/16 01:08:48;;;;;;;43.27;20.13;;;;;;;-0.36;100.00;98451.72;5069611;28;20041;-66
2021/12/16 01:34:15;;;;;;;36.10;15.07;;;;;;;-0.05;100.00;98416.72;5071173;28;20036;-65
2021/12/16 01:37:09;;;;;;;43.03;18.47;;;;;;;-0.13;100.00;98419.41;5071849;28;20045;-66
2021/12/16 01:49:01;;;;;;;37.10;16.33;;;;;;;-0.03;100.00;98404.56;5034778;28;20040;-66
2021/12/16 01:51:22;;;;;;;39.97;17.70;;;;;;;-0.03;100.00;98404.56;5034874;28;20106;-66
2021/12/16 01:54:31;;;;;;;39.47;16.20;;;;;;;-0.07;100.00;98397.75;5063951;28;20052;-65
2021/12/16 01:57:09;;;;;;;39.17;16.37;;;;;;;-0.10;100.00;98406.44;5070180;28;20107;-66
2021/12/16 01:59:39;;;;;;;40.87;17.13;;;;;;;-0.19;100.00;98414.34;5071169;28;20118;-68
2021/12/16 02:02:16;;;;;;;38.63;18.30;;;;;;;-0.23;100.00;98406.69;5073794;28;20115;-68
2021/12/16 02:05:08;;;;;;;42.40;18.53;;;;;;;-0.41;100.00;98410.41;5071673;28;20048;-69
2021/12/16 02:08:06;;;;;;;38.93;17.60;;;;;;;-0.43;100.00;98404.44;5070763;28;20392;-68
2021/12/16 02:10:27;;;;;;;39.43;16.27;;;;;;;-0.43;100.00;98399.25;5074511;28;20036;-67
2021/12/16 02:13:11;;;;;;;37.97;15.93;;;;;;;-0.46;100.00;98390.69;5073063;28;20243;-68
2021/12/16 02:29:38;;;;;;;35.37;14.70;;;;;;;-0.46;100.00;98364.81;5072908;28;20097;-69
2021/12/16 02:32:11;;;;;;;40.03;18.03;;;;;;;-0.54;100.00;98364.09;5072028;28;20123;-68
2021/12/16 02:34:57;;;;;;;;;;;;;;;-0.50;100.00;98356.25;5073352;28;20051;-68
2021/12/16 02:37:30;;;;;;;50.37;16.37;;;;;;;-0.51;100.00;98354.56;5074315;28;19920;-68
2021/12/16 02:39:58;;;;;;;44.77;17.47;;;;;;;-0.54;100.00;98353.75;5072499;28;20094;-68
2021/12/16 02:42:35;;;;;;;32.23;14.97;;;;;;;-0.52;100.00;98355.44;5072263;28;20119;-68
2021/12/16 02:50:33;;;;;;;46.60;17.70;;;;;;;-0.54;100.00;98341.69;5071887;28;20106;-68
2021/12/16 02:53:01;;;;;;;51.43;19.23;;;;;;;-0.51;100.00;98344.22;5071009;28;20044;-68
2021/12/16 02:55:28;;;;;;;50.27;18.30;;;;;;;-0.45;100.00;98344.09;5070942;28;20048;-69
2021/12/16 02:58:00;;;;;;;53.90;20.50;;;;;;;-0.36;100.00;98337.91;5071833;28;20033;-69
2021/12/16 03:00:28;;;;;;;56.10;18.23;;;;;;;-0.47;100.00;98337.25;5070928;28;20091;-67
2021/12/16 03:02:55;;;;;;;56.80;19.57;;;;;;;-0.46;100.00;98333.78;5072187;28;20059;-68
2021/12/16 03:05:23;;;;;;;51.10;17.50;;;;;;;-0.46;100.00;98326.88;5072285;28;20045;-68
2021/12/16 03:07:52;;;;;;;53.37;19.70;;;;;;;-0.44;100.00;98324.28;5074905;28;20067;-68
2021/12/16 03:13:09;;;;;;;46.10;17.23;;;;;;;-0.49;100.00;98306.25;5070391;28;20382;-68
2021/12/16 03:15:58;;;;;;;42.80;16.70;;;;;;;-0.54;100.00;98302.91;5070409;28;20135;-68
2021/12/16 03:18:35;;;;;;;41.90;15.80;;;;;;;-0.57;100.00;98300.34;5072861;28;20051;-67
2021/12/16 03:21:11;;;;;;;41.30;15.30;;;;;;;-0.55;100.00;98298.63;5070811;28;20098;-68
2021/12/16 03:23:52;;;;;;;40.67;14.80;;;;;;;-0.53;100.00;98304.59;5072821;28;20037;-67
2021/12/16 03:32:38;;;;;;;42.25;16.92;;;;;;;-0.54;100.00;98297.72;5071226;28;20123;-68
2021/12/16 03:35:26;;;;;;;46.80;18.37;;;;;;;-0.56;100.00;98291.72;5069277;28;20053;-68
2021/12/16 03:37:56;;;;;;;43.37;18.53;;;;;;;-0.56;100.00;98281.38;5070197;28;20037;-67
2021/12/16 03:40:26;;;;;;;45.80;18.13;;;;;;;-0.47;100.00;98283.81;5070672;28;20053;-67
2021/12/16 03:43:00;;;;;;;46.50;18.53;;;;;;;-0.51;100.00;98276.97;5071271;28;20043;-68
2021/12/16 03:48:27;;;;;;;41.57;16.20;;;;;;;-0.55;100.00;98270.16;5071166;28;20393;-68
2021/12/16 03:50:57;;;;;;;39.10;17.47;;;;;;;-0.51;100.00;98283.88;5072290;28;20055;-68
2021/12/16 03:53:25;;;;;;;41.60;16.60;;;;;;;-0.50;100.00;98277.81;5070345;28;20048;-67
2021/12/16 03:55:54;;;;;;;45.50;17.00;;;;;;;-0.53;100.00;98273.56;5053677;28;20493;-68
2021/12/16 03:58:24;;;;;;;33.67;15.80;;;;;;;-0.55;100.00;98274.47;5069500;28;20076;-67
2021/12/16 04:00:57;;;;;;;44.93;19.10;;;;;;;-0.59;100.00;98278.84;5068300;28;20044;-67
2021/12/16 04:03:24;;;;;;;43.67;18.03;;;;;;;-0.60;100.00;98271.97;5070473;28;20067;-67
2021/12/16 04:05:55;;;;;;;46.27;18.37;;;;;;;-0.60;100.00;98276.31;5069480;28;20053;-68
2021/12/16 04:08:24;;;;;;;44.50;18.50;;;;;;;-0.60;100.00;98281.47;5069113;28;20496;-67
2021/12/16 04:11:03;;;;;;;49.53;19.20;;;;;;;-0.56;100.00;98288.28;5068928;28;20068;-67
2021/12/16 04:13:52;;;;;;;48.30;19.63;;;;;;;-0.50;100.00;98283.00;5068698;28;20113;-68
2021/12/16 04:16:25;;;;;;;44.30;19.03;;;;;;;-0.50;100.00;98283.84;5068448;28;20435;-66
2021/12/16 04:18:53;;;;;;;53.33;19.83;;;;;;;-0.49;100.00;98280.38;5068621;28;20444;-68
2021/12/16 04:21:21;;;;;;;49.03;19.23;;;;;;;-0.51;100.00;98274.41;5068721;28;20471;-67
2021/12/16 04:23:50;;;;;;;53.97;20.93;;;;;;;-0.52;100.00;98261.50;5067436;28;20036;-68
2021/12/16 04:26:18;;;;;;;54.63;20.37;;;;;;;-0.49;100.00;98269.19;5068988;28;20051;-68
2021/12/16 04:28:46;;;;;;;48.97;20.10;;;;;;;-0.53;100.00;98267.53;5068004;28;20036;-68
2021/12/16 04:31:15;;;;;;;43.43;16.03;;;;;;;-0.56;100.00;98275.38;5069039;28;20119;-67
2021/12/16 04:33:43;;;;;;;44.97;19.30;;;;;;;-0.59;100.00;98268.50;5069421;28;20434;-67
2021/12/16 04:36:15;;;;;;;53.83;18.97;;;;;;;-0.56;100.00;98273.59;5068546;28;20045;-67
2021/12/16 04:38:44;;;;;;;53.40;21.60;;;;;;;-0.49;100.00;98275.19;5068457;28;20427;-68
2021/12/16 04:41:13;;;;;;;58.93;23.33;;;;;;;-0.45;100.00;98263.09;5067685;28;20037;-68
2021/12/16 04:43:47;;;;;;;53.77;20.00;;;;;;;-0.45;100.00;98276.84;5068648;28;20039;-68
2021/12/16 04:46:17;;;;;;;57.73;20.77;;;;;;;-0.44;100.00;98278.56;5067726;28;20558;-67
2021/12/16 04:48:50;;;;;;;56.00;21.47;;;;;;;-0.45;100.00;98282.03;5067660;28;20461;-67
2021/12/16 04:51:28;;;;;;;60.80;19.60;;;;;;;-0.40;100.00;98266.44;5069743;28;20581;-67
2021/12/16 04:53:55;;;;;;;66.30;25.70;;;;;;;-0.43;100.00;98275.09;5069952;28;20082;-67
2021/12/16 04:56:22;;;;;;;57.60;22.83;;;;;;;-0.46;100.00;98280.31;5069689;28;20098;-67
2021/12/16 04:59:08;;;;;;;70.50;24.80;;;;;;;-0.49;100.00;98280.38;5072837;28;20363;-67
2021/12/16 05:01:38;;;;;;;70.50;24.37;;;;;;;-0.45;100.00;98268.25;5073930;28;20393;-67
2021/12/16 05:04:05;;;;;;;69.87;24.90;;;;;;;-0.48;100.00;98271.72;5074190;28;20045;-66
2021/12/16 05:06:33;;;;;;;65.10;24.67;;;;;;;-0.49;100.00;98274.38;5072466;28;20040;-66
2021/12/16 05:09:00;;;;;;;83.53;24.10;;;;;;;-0.50;100.00;98267.47;5072368;28;20044;-67
2021/12/16 05:11:42;;;;;;;75.27;25.40;;;;;;;-0.51;100.00;98264.06;5072496;28;20040;-66
2021/12/16 05:14:11;;;;;;;91.73;26.53;;;;;;;-0.54;100.00;98268.41;5072405;28;20052;-66
2021/12/16 05:16:44;;;;;;;79.67;25.30;;;;;;;-0.49;100.00;98266.63;5072080;28;20047;-65
2021/12/16 05:19:11;;;;;;;92.20;24.93;;;;;;;-0.50;100.00;98270.91;5073563;28;20051;-66
2021/12/16 05:21:45;;;;;;;89.77;24.80;;;;;;;-0.48;100.00;98273.47;5072289;28;20041;-65
2021/12/16 05:24:25;;;;;;;75.40;26.00;;;;;;;-0.50;100.00;98273.50;5074374;28;20033;-66
2021/12/16 05:26:58;;;;;;;97.47;26.70;;;;;;;-0.45;100.00;98271.69;5072742;28;20044;-65
2021/12/16 05:29:27;;;;;;;97.07;26.20;;;;;;;-0.42;100.00;98278.53;5070498;28;20044;-65
2021/12/16 05:31:56;;;;;;;103.60;28.40;;;;;;;-0.41;100.00;98273.31;5071489;28;20119;-65
2021/12/16 05:34:24;;;;;;;88.30;27.80;;;;;;;-0.38;100.00;98278.44;5073039;28;20055;-66
2021/12/16 05:36:51;;;;;;;79.43;26.27;;;;;;;-0.31;100.00;98277.44;5071293;28;20044;-66
2021/12/16 05:39:19;;;;;;;99.40;28.50;;;;;;;-0.31;100.00;98290.38;5073145;28;20044;-65
2021/12/16 05:41:51;;;;;;;106.90;29.20;;;;;;;-0.37;100.00;98274.97;5072458;28;20055;-65
2021/12/16 05:44:20;;;;;;;101.87;28.40;;;;;;;-0.36;100.00;98276.69;5071453;28;20154;-65
2021/12/16 05:46:50;;;;;;;87.90;28.93;;;;;;;-0.33;100.00;98279.22;5072170;28;20393;-65
2021/12/16 05:49:17;;;;;;;96.80;28.30;;;;;;;-0.33;100.00;98276.63;5071609;28;20543;-65
2021/12/16 05:51:50;;;;;;;98.17;30.40;;;;;;;-0.33;100.00;98287.00;5072136;28;20102;-66
2021/12/16 05:54:20;;;;;;;102.03;29.87;;;;;;;-0.32;100.00;98293.84;5071983;28;20056;-66
2021/12/16 05:56:56;;;;;;;92.27;29.57;;;;;;;-0.32;100.00;98283.50;5071161;28;20045;-66
2021/12/16 05:59:24;;;;;;;93.27;29.33;;;;;;;-0.26;100.00;98282.53;5072507;28;20435;-64
2021/12/16 06:01:53;;;;;;;74.43;26.90;;;;;;;-0.20;100.00;98285.84;5072719;28;20047;-65
2021/12/16 06:04:28;;;;;;;82.10;26.97;;;;;;;-0.20;100.00;98293.63;5072621;28;20048;-65
2021/12/16 06:06:59;;;;;;;83.93;29.97;;;;;;;-0.20;100.00;98295.34;5071823;28;20108;-65
2021/12/16 06:09:27;;;;;;;96.43;31.00;;;;;;;-0.13;100.00;98294.34;5072014;28;20443;-65
2021/12/16 06:11:54;;;;;;;90.87;29.70;;;;;;;-0.16;100.00;98297.00;5073181;28;20037;-66
2021/12/16 06:14:26;;;;;;;89.43;26.33;;;;;;;-0.11;100.00;98288.28;5072838;28;20060;-65
2021/12/16 06:22:53;;;;;;;135.07;33.20;;;;;;;-0.13;100.00;98295.19;5071002;28;20558;-65
2021/12/16 06:28:09;;;;;;;95.67;30.40;;;;;;;-0.06;100.00;98301.97;5072371;28;20036;-67
2021/12/16 06:30:39;;;;;;;157.83;39.20;;;;;;;0.02;100.00;98297.47;5072289;28;20071;-66
2021/12/16 06:33:11;;;;;;;154.87;37.33;;;;;;;0.08;100.00;98299.09;5072457;28;20052;-66
2021/12/16 06:35:39;;;;;;;188.45;37.42;;;;;;;-0.06;100.00;98301.97;5070407;28;20438;-66
2021/12/16 06:38:10;;;;;;;133.93;32.07;;;;;;;-0.05;100.00;98302.81;5071899;28;20105;-66
2021/12/16 06:40:57;;;;;;;144.50;34.07;;;;;;;0.04;100.00;98311.25;5070535;28;20044;-66
2021/12/16 06:44:06;;;;;;;196.20;35.37;;;;;;;-0.08;100.00;98313.22;5070550;28;20048;-66
2021/12/16 06:46:37;;;;;;;112.50;31.37;;;;;;;-0.01;100.00;98307.88;5073032;28;20106;-66
2021/12/16 06:49:06;;;;;;;147.33;32.13;;;;;;;0.03;100.00;98301.75;5071422;28;20048;-65
2021/12/16 06:51:43;;;;;;;171.50;35.73;;;;;;;0.03;100.00;98301.75;5071550;28;20516;-66
2021/12/16 06:54:15;;;;;;;105.90;30.03;;;;;;;-0.00;100.00;98301.00;5070658;28;20049;-66
2021/12/16 06:56:49;;;;;;;155.80;34.90;;;;;;;0.04;100.00;98297.44;5070745;28;20052;-66
2021/12/16 06:59:23;;;;;;;89.73;31.23;;;;;;;0.06;100.00;98299.13;5070721;28;20488;-67
2021/12/16 07:02:04;;;;;;;163.10;34.40;;;;;;;-0.00;100.00;98290.63;5071066;28;20047;-67
2021/12/16 07:04:33;;;;;;;159.00;33.70;;;;;;;0.04;100.00;98298.31;5069805;28;20040;-67
2021/12/16 07:07:01;;;;;;;90.17;27.27;;;;;;;0.09;100.00;98295.59;5070544;28;20039;-66
2021/12/16 07:09:29;;;;;;;128.80;31.47;;;;;;;0.18;100.00;98285.09;5071925;28;20036;-66
2021/12/16 07:11:59;;;;;;;121.90;32.00;;;;;;;0.18;100.00;98283.31;5070520;28;20040;-66
2021/12/16 07:14:36;;;;;;;108.90;31.50;;;;;;;0.21;100.00;98283.25;5070468;28;20098;-66
2021/12/16 07:17:07;;;;;;;86.80;28.13;;;;;;;0.34;100.00;98295.06;5070814;28;20048;-67
2021/12/16 07:19:36;;;;;;;96.67;29.63;;;;;;;0.38;100.00;98277.72;5069160;28;20185;-66
2021/12/16 07:22:04;;;;;;;83.13;27.83;;;;;;;0.42;100.00;98282.81;5070391;28;20049;-67
2021/12/16 07:24:31;;;;;;;86.33;27.83;;;;;;;0.49;100.00;98286.97;5069411;28;20064;-66
2021/12/16 07:26:58;;;;;;;72.77;26.03;;;;;;;0.46;100.00;98278.41;5070964;28;20048;-65
2021/12/16 07:29:25;;;;;;;91.00;27.23;;;;;;;0.49;100.00;98281.78;5069943;28;20404;-66
2021/12/16 07:31:52;;;;;;;92.80;27.17;;;;;;;0.50;100.00;98285.22;5070436;28;20051;-67
2021/12/16 07:34:19;;;;;;;68.33;24.00;;;;;;;0.44;100.00;98283.59;5070178;28;20049;-66
2021/12/16 07:36:48;;;;;;;81.47;28.07;;;;;;;0.43;100.00;98276.72;5070072;28;20056;-64
2021/12/16 07:39:18;;;;;;;89.93;27.53;;;;;;;0.41;100.00;98275.94;5070183;28;20072;-66
2021/12/16 07:41:48;;;;;;;79.13;26.73;;;;;;;0.48;100.00;98269.72;5070102;28;20385;-65
2021/12/16 07:44:16;;;;;;;88.23;28.10;;;;;;;0.52;100.00;98267.91;5070049;28;20048;-66
2021/12/16 07:46:49;;;;;;;80.83;26.53;;;;;;;0.62;100.00;98265.06;5069786;28;20114;-66
2021/12/16 07:49:19;;;;;;;124.40;26.57;;;;;;;0.61;100.00;98255.59;5069772;28;20041;-66
2021/12/16 07:51:48;;;;;;;78.07;24.70;;;;;;;0.56;100.00;98248.81;5069609;28;20044;-66
2021/12/16 07:54:17;;;;;;;99.50;26.97;;;;;;;0.63;100.00;98251.25;5069940;28;20071;-66
2021/12/16 07:56:45;;;;;;;84.03;27.03;;;;;;;0.64;100.00;98249.50;5067511;28;20127;-65
2021/12/16 07:59:12;;;;;;;85.07;26.13;;;;;;;0.59;100.00;98253.94;5067248;28;20045;-66
2021/12/16 08:01:42;;;;;;;133.97;29.07;;;;;;;0.58;100.00;98250.47;5069502;28;20119;-66
2021/12/16 08:04:17;;;;;;;105.63;29.43;;;;;;;0.60;100.00;98253.03;5069379;28;20421;-66
2021/12/16 08:06:46;;;;;;;97.87;28.77;;;;;;;0.60;100.00;98259.09;5069857;28;20048;-66
2021/12/16 08:09:14;;;;;;;84.43;28.37;;;;;;;0.62;100.00;98252.09;5069646;28;20436;-66
2021/12/16 08:11:42;;;;;;;123.20;29.20;;;;;;;0.60;100.00;98253.03;5070325;28;20048;-66
2021/12/16 08:14:11;;;;;;;84.73;27.57;;;;;;;0.57;100.00;98259.16;5066835;28;20037;-67
2021/12/16 08:16:39;;;;;;;84.97;26.93;;;;;;;0.64;100.00;98254.66;5069037;28;20048;-67
2021/12/16 08:19:07;;;;;;;82.80;26.97;;;;;;;0.71;100.00;98254.50;5068821;28;20128;-66
2021/12/16 08:21:35;;;;;;;89.40;28.73;;;;;;;0.74;100.00;98257.03;5069234;28;20036;-66
2021/12/16 08:24:06;;;;;;;70.80;24.87;;;;;;;0.83;100.00;98258.53;5068812;28;20110;-67
2021/12/16 08:26:37;;;;;;;77.67;25.73;;;;;;;0.80;100.00;98250.84;5069477;28;20421;-67
2021/12/16 08:29:05;;;;;;;80.93;26.23;;;;;;;0.84;100.00;98242.09;5069397;28;20375;-66
2021/12/16 08:31:32;;;;;;;74.17;26.27;;;;;;;0.87;100.00;98242.00;5069249;28;20576;-67
2021/12/16 08:34:00;;;;;;;72.63;27.50;;;;;;;0.93;100.00;98241.88;5068679;28;20109;-66
2021/12/16 08:36:28;;;;;;;72.70;27.30;;;;;;;0.95;100.00;98241.84;5067736;28;20040;-67
2021/12/16 08:38:55;;;;;;;89.93;28.10;;;;;;;0.91;100.00;98242.78;5068831;28;20037;-67
2021/12/16 08:41:25;;;;;;;99.77;28.90;;;;;;;0.92;100.00;98249.69;5069184;28;20052;-63
2021/12/16 08:43:54;;;;;;;105.30;28.77;;;;;;;0.86;100.00;98242.06;5070920;28;20045;-64
2021/12/16 08:46:24;;;;;;;103.53;30.87;;;;;;;0.93;100.00;98247.03;5069274;28;20458;-64
2021/12/16 08:48:52;;;;;;;142.50;34.17;;;;;;;0.95;100.00;98244.41;5068817;28;20133;-67
2021/12/16 08:51:22;;;;;;;190.73;32.50;;;;;;;0.99;100.00;98236.53;5070063;28;20072;-67
2021/12/16 08:53:49;;;;;;;198.27;35.37;;;;;;;0.90;100.00;98239.34;5069221;28;20041;-66
2021/12/16 08:56:17;;;;;;;183.13;35.77;;;;;;;0.92;100.00;98234.13;5070162;28;20058;-66
2021/12/16 08:58:44;;;;;;;280.43;40.43;;;;;;;0.94;100.00;98232.34;5069095;28;20083;-67
2021/12/16 09:01:18;;;;;;;184.57;35.30;;;;;;;0.98;100.00;98229.63;5068874;28;20044;-67
2021/12/16 09:03:45;;;;;;;319.50;43.73;;;;;;;1.01;100.00;98220.94;5069116;28;20044;-66
2021/12/16 09:06:12;;;;;;;278.50;39.50;;;;;;;1.07;100.00;98220.78;5068962;28;20480;-66
2021/12/16 09:08:40;;;;;;;370.27;43.00;;;;;;;1.00;100.00;98216.63;5068859;28;20055;-67
2021/12/16 09:11:09;;;;;;;191.87;36.13;;;;;;;1.01;100.00;98218.34;5069169;28;20067;-66
2021/12/16 09:13:41;;;;;;;342.80;43.50;;;;;;;1.06;100.00;98219.09;5069025;28;20055;-66
2021/12/16 09:16:11;;;;;;;264.17;39.80;;;;;;;1.00;100.00;98207.13;5069256;28;20124;-62
2021/12/16 09:18:43;;;;;;;234.60;36.67;;;;;;;0.98;100.00;98211.47;5069795;28;20082;-62
2021/12/16 09:21:13;;;;;;;335.17;42.43;;;;;;;0.93;100.00;98202.97;5068893;28;20094;-66
2021/12/16 09:23:46;;;;;;;230.37;37.13;;;;;;;1.02;100.00;98199.31;5068619;28;20054;-65
2021/12/16 09:26:14;;;;;;;189.57;34.10;;;;;;;1.04;100.00;98205.28;5068164;28;20489;-67
2021/12/16 09:28:42;;;;;;;252.73;36.10;;;;;;;1.11;100.00;98194.72;5068641;28;20062;-65
2021/12/16 09:31:12;;;;;;;244.57;36.83;;;;;;;1.09;100.00;98191.31;5068814;28;20045;-65
2021/12/16 09:33:43;;;;;;;279.97;38.30;;;;;;;1.09;100.00;98180.13;5068560;28;20090;-66
2021/12/16 09:36:12;;;;;;;185.60;34.53;;;;;;;1.10;100.00;98187.00;5070357;28;20048;-65
2021/12/16 09:38:40;;;;;;;180.47;31.87;;;;;;;1.13;100.00;98172.22;5070579;28;20064;-65
2021/12/16 09:41:08;;;;;;;242.73;36.67;;;;;;;1.13;100.00;98173.97;5069503;28;20059;-67
2021/12/16 09:43:40;;;;;;;170.37;31.33;;;;;;;1.12;100.00;98172.25;5070634;28;20044;-65
2021/12/16 09:46:10;;;;;;;158.87;34.37;;;;;;;1.17;100.00;98175.56;5073443;28;20519;-67
2021/12/16 09:48:40;;;;;;;298.63;41.73;;;;;;;1.19;100.00;98177.22;5072395;28;20404;-65
2021/12/16 09:51:11;;;;;;;135.97;32.63;;;;;;;1.19;100.00;98171.22;5071095;28;20119;-65
2021/12/16 09:53:39;;;;;;;176.83;32.77;;;;;;;1.17;100.00;98171.25;5071498;28;20033;-66
2021/12/16 09:56:09;;;;;;;255.03;36.60;;;;;;;1.18;100.00;98166.91;5072181;28;20040;-66
2021/12/16 09:58:39;;;;;;;227.70;33.80;;;;;;;1.28;100.00;98165.75;5071586;28;20059;-66
2021/12/16 10:01:09;;;;;;;246.93;37.57;;;;;;;1.28;100.00;98164.03;5072154;28;20078;-65
2021/12/16 10:03:38;;;;;;;195.40;36.17;;;;;;;1.29;100.00;98167.44;5072057;28;20043;-65
2021/12/16 10:06:07;;;;;;;190.53;33.40;;;;;;;1.26;100.00;98160.63;5072293;28;20056;-66
2021/12/16 10:08:35;;;;;;;221.23;33.13;;;;;;;1.22;100.00;98153.81;5072033;28;20037;-70
2021/12/16 10:11:03;;;;;;;223.30;34.07;;;;;;;1.22;100.00;98145.16;5072096;28;20531;-64
2021/12/16 10:13:41;;;;;;;175.60;30.67;;;;;;;1.28;100.00;98145.00;5072798;28;20534;-65
2021/12/16 10:18:53;;;;;;;163.13;34.00;;;;;;;1.33;100.00;98136.22;5072307;28;20043;-64
2021/12/16 10:21:24;;;;;;;153.80;32.30;;;;;;;1.41;100.00;98146.38;5072566;28;20196;-64
2021/12/16 10:23:52;;;;;;;140.80;30.70;;;;;;;1.38;100.00;98142.09;5071415;28;20064;-62
2021/12/16 10:26:21;;;;;;;116.67;31.07;;;;;;;1.38;100.00;98136.91;5072358;28;20045;-64
2021/12/16 10:28:50;;;;;;;164.03;30.73;;;;;;;1.39;100.00;98132.59;5072314;28;20024;-64
2021/12/16 10:31:21;;;;;;;149.93;28.20;;;;;;;1.45;100.00;98133.25;5072463;28;20140;-63
2021/12/16 10:33:51;;;;;;;181.70;30.27;;;;;;;1.52;100.00;98124.41;5072163;28;20044;-65
2021/12/16 10:36:22;;;;;;;238.37;32.87;;;;;;;1.43;100.00;98122.09;5071705;28;20080;-64
2021/12/16 10:38:54;;;;;;;191.07;28.83;;;;;;;1.35;100.00;98123.19;5072078;28;20056;-65
2021/12/16 10:41:24;;;;;;;220.97;30.87;;;;;;;1.38;100.00;98118.75;5071837;28;20096;-64
2021/12/16 10:43:54;;;;;;;195.67;30.43;;;;;;;1.36;100.00;98124.88;5068650;28;20040;-65
2021/12/16 10:46:25;;;;;;;217.90;32.67;;;;;;;1.38;100.00;98121.34;5072381;28;20720;-64
2021/12/16 10:48:54;;;;;;;217.87;32.67;;;;;;;1.41;100.00;98116.09;5069899;28;21049;-66
2021/12/16 10:51:28;;;;;;;244.63;34.33;;;;;;;1.35;100.00;98118.00;5070298;28;20072;-65
2021/12/16 10:54:05;;;;;;;155.48;30.10;;;;;;;1.35;100.00;98118.88;5070411;28;20131;-66
2021/12/16 10:56:37;;;;;;;279.37;34.03;;;;;;;1.31;100.00;98126.78;5068548;28;20055;-64
2021/12/16 10:59:08;;;;;;;227.03;33.37;;;;;;;1.30;100.00;98125.09;5071149;28;20040;-63
2021/12/16 11:01:46;;;;;;;360.77;39.47;;;;;;;1.27;100.00;98119.97;5070689;28;20489;-65
2021/12/16 11:04:18;;;;;;;312.93;40.47;;;;;;;1.25;100.00;98120.03;5070681;28;20052;-64
2021/12/16 11:06:47;;;;;;;331.47;37.27;;;;;;;1.33;100.00;98118.06;5070078;28;20049;-64
2021/12/16 11:09:34;;;;;;;262.23;37.87;;;;;;;1.42;100.00;98124.72;5071481;28;20033;-64
2021/12/16 11:12:42;;;;;;;445.67;45.47;;;;;;;1.46;100.00;98110.78;5070574;28;20098;-65
2021/12/16 11:15:19;;;;;;;282.67;33.73;;;;;;;1.43;100.00;98116.03;5067209;28;20048;-64
2021/12/16 11:17:49;;;;;;;244.50;31.70;;;;;;;1.39;100.00;98107.50;5069146;28;20058;-64
2021/12/16 11:20:28;;;;;;;279.00;32.87;;;;;;;1.45;100.00;98106.50;5069565;28;20044;-64
2021/12/16 11:22:59;;;;;;;231.57;34.23;;;;;;;1.43;100.00;98103.06;5069187;28;20408;-64
2021/12/16 11:25:32;;;;;;;306.43;35.57;;;;;;;1.48;100.00;98101.19;5069295;28;20064;-62
2021/12/16 11:28:08;;;;;;;280.67;33.90;;;;;;;1.48;100.00;98096.00;5068052;28;20040;-64
2021/12/16 11:30:43;;;;;;;206.70;30.57;;;;;;;1.46;100.00;98084.84;5069305;28;20051;-67
2021/12/16 11:33:18;;;;;;;369.33;46.00;;;;;;;1.50;100.00;98089.03;5069000;28;20044;-65
2021/12/16 11:35:52;;;;;;;163.93;30.63;;;;;;;1.50;100.00;98078.66;5067912;28;20476;-65
2021/12/16 11:38:27;;;;;;;241.67;33.00;;;;;;;1.46;100.00;98084.84;5071079;28;20723;-71
2021/12/16 11:41:10;;;;;;;233.53;29.00;;;;;;;1.43;100.00;98083.19;5067776;28;20044;-70
2021/12/16 11:43:46;;;;;;;281.80;32.47;;;;;;;1.43;100.00;98084.91;5068072;28;20067;-66
2021/12/16 11:46:20;;;;;;;299.87;32.83;;;;;;;1.47;100.00;98087.38;5068309;28;20076;-67
2021/12/16 11:48:49;;;;;;;303.13;35.93;;;;;;;1.55;100.00;98079.34;5068058;28;20106;-66
2021/12/16 11:51:19;;;;;;;236.00;31.97;;;;;;;1.58;100.00;98081.88;5068766;28;21159;-66
2021/12/16 11:53:49;;;;;;;339.53;41.30;;;;;;;1.63;100.00;98080.84;5067967;28;20059;-64
2021/12/16 11:56:19;;;;;;;378.80;38.90;;;;;;;1.54;100.00;98085.44;5067716;28;20068;-67
2021/12/16 11:58:48;;;;;;;269.20;35.83;;;;;;;1.45;100.00;98081.38;5066906;28;20041;-66
2021/12/16 12:01:19;;;;;;;217.13;30.67;;;;;;;1.56;100.00;98078.47;5067433;28;20048;-67
2021/12/16 12:03:47;;;;;;;188.57;33.63;;;;;;;1.60;100.00;98080.91;5069060;28;20119;-68
2021/12/16 12:06:26;;;;;;;236.87;31.23;;;;;;;1.62;100.00;98079.16;5069032;28;20032;-68
2021/12/16 12:08:55;;;;;;;294.63;33.60;;;;;;;1.60;100.00;98073.13;5069204;28;20036;-67
2021/12/16 12:11:29;;;;;;;348.10;38.13;;;;;;;1.59;100.00;98074.03;5067409;28;20095;-68
2021/12/16 12:13:59;;;;;;;291.30;33.53;;;;;;;1.64;100.00;98068.72;5067979;28;20484;-68
2021/12/16 12:16:31;;;;;;;260.77;32.70;;;;;;;1.63;100.00;98074.78;5069116;28;20152;-69
2021/12/16 12:19:01;;;;;;;136.03;28.37;;;;;;;1.67;100.00;98066.88;5069085;28;20050;-67
2021/12/16 12:21:33;;;;;;;241.80;30.33;;;;;;;1.66;100.00;98069.50;5069672;28;20442;-68
2021/12/16 12:24:03;;;;;;;211.23;30.70;;;;;;;1.49;100.00;98067.41;5068523;28;20052;-66
2021/12/16 12:26:34;;;;;;;277.83;33.93;;;;;;;1.41;100.00;98076.34;5068775;28;20551;-65
2021/12/16 12:29:07;;;;;;;132.47;25.10;;;;;;;1.38;100.00;98073.84;5069148;28;20502;-65
2021/12/16 12:31:38;;;;;;;155.38;25.45;;;;;;;1.27;100.00;98065.50;5069207;28;20098;-66
2021/12/16 12:34:05;;;;;;;126.17;27.07;;;;;;;1.24;100.00;98063.00;5069012;28;20040;-66
2021/12/16 12:36:32;;;;;;;85.43;21.33;;;;;;;1.19;100.00;98057.09;5065628;28;20072;-67
2021/12/16 12:39:02;;;;;;;103.43;25.97;;;;;;;1.12;100.00;98055.59;5066322;28;20036;-67
2021/12/16 12:41:30;;;;;;;89.37;22.80;;;;;;;1.19;100.00;98049.34;5066905;28;20188;-66
2021/12/16 12:43:58;;;;;;;88.93;23.10;;;;;;;1.18;100.00;98050.19;5067534;28;20051;-66
2021/12/16 12:46:26;;;;;;;103.13;26.33;;;;;;;1.13;100.00;98057.28;5068174;28;20052;-66
2021/12/16 12:48:55;;;;;;;130.67;25.47;;;;;;;1.12;100.00;98050.41;5068190;28;20500;-66
2021/12/16 12:51:36;;;;;;;101.47;25.03;;;;;;;1.18;100.00;98056.25;5066286;28;20041;-67
2021/12/16 12:54:16;;;;;;;161.00;33.87;;;;;;;1.23;100.00;98049.19;5068101;28;20052;-68
2021/12/16 12:56:43;;;;;;;119.03;30.60;;;;;;;1.21;100.00;98050.13;5067675;28;20044;-68
2021/12/16 12:59:15;;;;;;;163.97;29.47;;;;;;;1.15;100.00;98066.69;5068231;28;20078;-69
2021/12/16 13:01:46;;;;;;;158.03;31.13;;;;;;;1.11;100.00;98059.03;5068420;28;20044;-68
2021/12/16 13:04:19;;;;;;;103.97;26.27;;;;;;;1.10;100.00;98058.22;5068394;28;20074;-65
2021/12/16 13:07:10;;;;;;;178.43;30.00;;;;;;;1.13;100.00;98062.47;5067213;28;20052;-65
2021/12/16 13:09:41;;;;;;;107.90;27.37;;;;;;;1.11;100.00;98062.50;5052482;28;20048;-65
2021/12/16 13:12:35;;;;;;;151.97;28.77;;;;;;;1.09;100.00;98061.69;5068155;28;20057;-65
2021/12/16 13:15:11;;;;;;;;;;;;;;;1.10;100.00;98059.94;5068367;28;20045;-66
2021/12/16 13:23:37;;;;;;;114.20;23.70;;;;;;;1.01;100.00;98068.81;5046749;28;20409;-66
2021/12/16 13:26:30;;;;;;;123.35;27.63;;;;;;;1.04;100.00;98063.56;5072822;28;20048;-66